createdAt,value
2022-12-15T00:00:18.654Z,72.90
2022-12-15T00:03:03.993Z,73.20
2022-12-15T00:05:49.857Z,73.50
2022-12-15T00:08:35.977Z,73.70
2022-12-15T00:11:22.161Z,73.70
2022-12-15T00:14:07.710Z,74.20
2022-12-15T00:16:53.380Z,73.60
2022-12-15T00:19:38.677Z,74.50
2022-12-15T00:22:24.556Z,74.00
2022-12-15T00:25:10.126Z,74.10
2022-12-15T00:27:55.390Z,74.30
2022-12-15T00:30:41.507Z,74.60
2022-12-15T00:33:30.720Z,74.00
2022-12-15T00:36:19.642Z,74.20
2022-12-15T00:38:46.657Z,73.90
2022-12-15T00:41:15.716Z,74.80
2022-12-15T00:43:42.933Z,73.80
2022-12-15T00:46:28.862Z,74.10
2022-12-15T00:48:55.711Z,73.20
2022-12-15T00:51:22.598Z,74.00
2022-12-15T00:54:11.873Z,74.00
2022-12-15T00:57:00.266Z,74.10
2022-12-15T00:59:47.051Z,74.70
2022-12-15T01:02:32.828Z,74.00
2022-12-15T01:05:18.409Z,74.40
2022-12-15T01:08:03.921Z,74.50
2022-12-15T01:10:49.309Z,73.70
2022-12-15T01:13:34.793Z,73.70
2022-12-15T01:16:20.269Z,73.20
2022-12-15T01:19:05.728Z,73.40
2022-12-15T01:21:32.551Z,74.00
2022-12-15T01:23:59.312Z,73.30
2022-12-15T01:26:26.052Z,73.90
2022-12-15T01:28:52.878Z,73.90
2022-12-15T01:31:19.766Z,74.20
2022-12-15T01:33:46.549Z,74.60
2022-12-15T01:36:13.655Z,74.70
2022-12-15T01:38:40.416Z,74.90
2022-12-15T01:41:10.840Z,74.70
2022-12-15T01:43:39.261Z,73.50
2022-12-15T01:46:07.893Z,74.80
2022-12-15T01:48:36.147Z,73.60
2022-12-15T01:51:12.226Z,73.10
2022-12-15T01:53:59.189Z,73.30
2022-12-15T01:56:30.089Z,74.20
2022-12-15T01:59:02.458Z,73.00
2022-12-15T02:01:30.023Z,72.70
2022-12-15T02:03:56.854Z,73.20
2022-12-15T02:06:25.799Z,72.60
2022-12-15T02:08:56.365Z,73.50
2022-12-15T02:12:10.976Z,75.00
2022-12-15T02:15:04.642Z,74.90
2022-12-15T02:17:42.111Z,74.50
2022-12-15T02:20:08.812Z,74.30
2022-12-15T02:22:38.580Z,74.30
2022-12-15T02:25:11.576Z,73.20
2022-12-15T02:27:59.203Z,74.10
2022-12-15T02:30:38.146Z,74.40
2022-12-15T02:33:13.307Z,74.30
2022-12-15T02:36:09.991Z,74.40
2022-12-15T02:38:41.566Z,73.40
2022-12-15T02:41:31.225Z,74.70
2022-12-15T02:43:58.072Z,73.30
2022-12-15T02:46:36.968Z,74.80
2022-12-15T02:49:14.800Z,74.20
2022-12-15T02:51:56.352Z,73.70
2022-12-15T02:54:38.363Z,74.80
2022-12-15T02:57:23.640Z,75.30
2022-12-15T03:00:07.007Z,74.00
2022-12-15T03:02:35.188Z,74.40
2022-12-15T03:05:02.045Z,73.90
2022-12-15T03:07:28.838Z,74.60
2022-12-15T03:09:57.654Z,73.90
2022-12-15T03:12:24.815Z,73.10
2022-12-15T03:14:51.520Z,73.80
2022-12-15T03:17:18.322Z,74.10
2022-12-15T03:19:45.200Z,75.40
2022-12-15T03:22:12.121Z,74.30
2022-12-15T03:24:39.013Z,73.90
2022-12-15T03:27:05.734Z,73.60
2022-12-15T03:29:32.587Z,73.70
2022-12-15T03:31:59.447Z,74.40
2022-12-15T03:34:26.317Z,74.70
2022-12-15T03:36:53.653Z,74.20
2022-12-15T03:39:20.835Z,74.50
2022-12-15T03:41:47.577Z,74.70
2022-12-15T03:44:14.272Z,74.40
2022-12-15T03:46:41.169Z,73.80
2022-12-15T03:49:08.012Z,73.10
2022-12-15T03:51:34.808Z,74.10
2022-12-15T03:54:01.774Z,74.70
2022-12-15T03:56:28.586Z,73.90
2022-12-15T03:58:55.714Z,73.40
2022-12-15T04:01:25.476Z,73.90
2022-12-15T04:03:55.568Z,73.90
2022-12-15T04:06:27.080Z,73.10
2022-12-15T04:08:54.065Z,73.70
2022-12-15T04:11:21.000Z,74.20
2022-12-15T04:13:47.964Z,74.10
2022-12-15T04:16:19.527Z,73.60
2022-12-15T04:18:47.079Z,74.40
2022-12-15T04:21:13.899Z,74.10
2022-12-15T04:23:59.603Z,73.90
2022-12-15T04:26:45.017Z,73.60
2022-12-15T04:29:30.187Z,73.50
2022-12-15T04:32:15.928Z,73.70
2022-12-15T04:35:02.852Z,73.30
2022-12-15T04:37:50.401Z,74.50
2022-12-15T04:40:36.012Z,74.60
2022-12-15T04:43:21.341Z,73.70
2022-12-15T04:46:06.564Z,74.70
2022-12-15T04:48:51.768Z,74.80
2022-12-15T04:51:36.929Z,74.80
2022-12-15T04:54:22.202Z,75.50
2022-12-15T04:57:07.398Z,75.00
2022-12-15T04:59:52.766Z,75.70
2022-12-15T05:02:38.190Z,75.10
2022-12-15T05:05:23.731Z,75.00
2022-12-15T05:08:08.916Z,76.00
2022-12-15T05:10:54.392Z,74.00
2022-12-15T05:13:39.817Z,74.70
2022-12-15T05:16:24.985Z,74.60
2022-12-15T05:19:10.303Z,74.80
2022-12-15T05:21:55.576Z,75.00
2022-12-15T05:24:40.990Z,75.00
2022-12-15T05:27:26.243Z,75.10
2022-12-15T05:30:11.449Z,74.30
2022-12-15T05:32:38.087Z,74.30
2022-12-15T05:35:05.424Z,74.40
2022-12-15T05:37:32.041Z,75.50
2022-12-15T05:39:58.694Z,75.30
2022-12-15T05:42:25.445Z,75.20
2022-12-15T05:44:52.073Z,74.10
2022-12-15T05:47:18.717Z,74.20
2022-12-15T05:49:45.375Z,74.60
2022-12-15T05:52:12.306Z,74.80
2022-12-15T05:54:38.975Z,74.10
2022-12-15T05:57:05.614Z,73.80
2022-12-15T05:59:32.249Z,73.50
2022-12-15T06:01:58.946Z,74.40
2022-12-15T06:04:25.872Z,74.30
2022-12-15T06:06:52.683Z,74.40
2022-12-15T06:09:19.376Z,73.90
2022-12-15T06:11:46.530Z,73.50
2022-12-15T06:14:13.230Z,73.20
2022-12-15T06:16:50.377Z,75.20
2022-12-15T06:19:18.413Z,73.60
2022-12-15T06:21:45.047Z,74.40
2022-12-15T06:24:11.801Z,74.10
2022-12-15T06:26:39.870Z,74.80
2022-12-15T06:29:08.687Z,74.60
2022-12-15T06:31:37.056Z,74.40
2022-12-15T06:34:06.142Z,73.80
2022-12-15T06:36:32.949Z,74.40
2022-12-15T06:39:00.942Z,75.20
2022-12-15T06:41:30.368Z,75.10
2022-12-15T06:43:57.483Z,73.30
2022-12-15T06:46:25.495Z,74.20
2022-12-15T06:48:53.268Z,75.00
2022-12-15T06:51:20.629Z,74.00
2022-12-15T06:53:53.686Z,74.40
2022-12-15T06:56:33.703Z,73.10
2022-12-15T06:59:02.291Z,73.30
2022-12-15T07:01:29.564Z,72.70
2022-12-15T07:03:57.024Z,74.40
2022-12-15T07:06:23.962Z,74.40
2022-12-15T07:08:52.887Z,74.20
2022-12-15T07:11:21.043Z,73.40
2022-12-15T07:13:54.384Z,74.60
2022-12-15T07:16:22.724Z,73.60
2022-12-15T07:18:49.536Z,72.80
2022-12-15T07:21:16.965Z,74.30
2022-12-15T07:24:00.804Z,74.60
2022-12-15T07:26:28.469Z,73.60
2022-12-15T07:28:56.025Z,74.70
2022-12-15T07:31:28.746Z,74.70
2022-12-15T07:33:56.937Z,74.50
2022-12-15T07:36:28.901Z,74.90
2022-12-15T07:39:03.350Z,74.80
2022-12-15T07:41:30.420Z,74.30
2022-12-15T07:43:58.117Z,74.00
2022-12-15T07:46:30.966Z,74.20
2022-12-15T07:48:59.374Z,75.70
2022-12-15T07:51:26.179Z,75.60
2022-12-15T07:53:53.015Z,75.10
2022-12-15T07:56:22.560Z,75.00
2022-12-15T07:58:49.551Z,74.70
2022-12-15T08:01:20.155Z,74.90
2022-12-15T08:04:03.847Z,77.30
2022-12-15T08:06:41.930Z,75.20
2022-12-15T08:09:09.665Z,78.00
2022-12-15T08:11:36.461Z,75.60
2022-12-15T08:14:04.980Z,76.70
2022-12-15T08:16:34.794Z,76.10
2022-12-15T08:19:01.906Z,76.90
2022-12-15T08:21:37.581Z,76.50
2022-12-15T08:24:04.691Z,77.10
2022-12-15T08:26:31.877Z,79.50
2022-12-15T08:29:40.582Z,81.20
2022-12-15T08:31:52.060Z,80.60
2022-12-15T08:34:21.382Z,79.80
2022-12-15T08:36:48.065Z,77.50
2022-12-15T08:39:14.839Z,78.40
2022-12-15T08:41:41.690Z,78.30
2022-12-15T08:44:08.726Z,78.70
2022-12-15T08:46:36.897Z,79.70
2022-12-15T08:49:03.961Z,80.00
2022-12-15T08:51:32.676Z,80.10
2022-12-15T08:54:00.533Z,80.20
2022-12-15T08:56:27.927Z,80.60
2022-12-15T08:58:59.068Z,79.40
2022-12-15T09:01:27.345Z,81.30
2022-12-15T09:03:56.451Z,79.90
2022-12-15T09:06:29.689Z,80.80
2022-12-15T09:09:01.434Z,81.70
2022-12-15T09:11:29.186Z,81.00
2022-12-15T09:14:29.584Z,82.20
2022-12-15T09:16:56.731Z,81.40
2022-12-15T09:19:26.453Z,84.90
2022-12-15T09:21:59.352Z,87.50
2022-12-15T09:25:29.026Z,83.60
2022-12-15T09:28:07.698Z,79.30
2022-12-15T09:33:48.687Z,82.50
2022-12-15T09:36:29.319Z,86.10
2022-12-15T09:42:06.177Z,81.50
2022-12-15T09:44:39.082Z,82.80
2022-12-15T09:47:40.869Z,81.70
2022-12-15T09:50:45.697Z,79.20
2022-12-15T09:53:52.920Z,80.50
2022-12-15T09:56:24.267Z,81.30
2022-12-15T09:59:37.591Z,77.80
2022-12-15T10:02:04.586Z,78.50
2022-12-15T10:05:11.803Z,82.80
2022-12-15T10:07:46.611Z,79.10
2022-12-15T10:10:39.894Z,82.40
2022-12-15T10:13:23.491Z,79.40
2022-12-15T10:15:59.629Z,81.10
2022-12-15T10:18:44.664Z,82.50
2022-12-15T10:21:32.481Z,83.90
2022-12-15T10:24:17.629Z,82.90
2022-12-15T10:27:02.957Z,82.10
2022-12-15T10:32:51.103Z,82.30
2022-12-15T10:35:42.242Z,81.30
2022-12-15T10:38:34.552Z,82.60
2022-12-15T10:41:05.783Z,81.50
2022-12-15T10:43:44.313Z,79.70
2022-12-15T10:46:15.044Z,80.10
2022-12-15T10:48:48.849Z,80.00
2022-12-15T10:51:24.546Z,82.10
2022-12-15T10:54:10.252Z,82.40
2022-12-15T10:56:50.160Z,80.70
2022-12-15T10:59:32.083Z,82.00
2022-12-15T11:05:15.504Z,81.80
2022-12-15T11:08:14.989Z,82.50
2022-12-15T11:11:12.897Z,81.40
2022-12-15T11:17:22.875Z,82.50
2022-12-15T11:22:53.478Z,82.40
2022-12-15T11:25:26.070Z,82.50
2022-12-15T11:27:55.977Z,80.40
2022-12-15T11:30:46.522Z,81.60
2022-12-15T11:36:46.917Z,83.00
2022-12-15T11:39:36.980Z,82.00
2022-12-15T11:42:15.675Z,81.80
2022-12-15T11:44:49.405Z,82.20
2022-12-15T11:47:44.832Z,82.10
2022-12-15T11:50:26.572Z,82.00
2022-12-15T11:53:29.269Z,81.90
2022-12-15T11:56:21.728Z,82.30
2022-12-15T11:59:22.330Z,79.80
2022-12-15T12:02:11.340Z,79.60
2022-12-15T12:05:15.542Z,80.20
2022-12-15T12:07:46.300Z,79.80
2022-12-15T12:10:24.735Z,80.00
2022-12-15T12:13:17.957Z,80.30
2022-12-15T12:15:51.390Z,79.60
2022-12-15T12:18:19.710Z,80.40
2022-12-15T12:20:50.788Z,79.20
2022-12-15T12:23:47.151Z,79.60
2022-12-15T12:26:35.964Z,78.70
2022-12-15T12:29:44.680Z,78.90
2022-12-15T12:32:37.307Z,79.10
2022-12-15T12:38:13.774Z,79.70
2022-12-15T12:40:40.427Z,79.70
2022-12-15T12:45:59.724Z,81.10
2022-12-15T12:48:32.893Z,81.40
2022-12-15T12:51:22.973Z,81.60
2022-12-15T12:53:50.359Z,81.10
2022-12-15T12:56:37.797Z,80.90
2022-12-15T12:59:29.487Z,83.10
2022-12-15T13:01:58.010Z,82.20
2022-12-15T13:04:30.823Z,81.10
2022-12-15T13:06:59.444Z,81.30
2022-12-15T13:09:42.938Z,81.50
2022-12-15T13:12:51.304Z,81.50
2022-12-15T13:15:27.615Z,81.00
2022-12-15T13:18:07.724Z,80.50
2022-12-15T13:20:36.919Z,80.90
2022-12-15T13:23:22.007Z,80.50
2022-12-15T13:26:00.290Z,80.00
2022-12-15T13:28:36.117Z,79.80
2022-12-15T13:31:18.900Z,78.80
2022-12-15T13:33:54.682Z,77.80
2022-12-15T13:36:39.888Z,79.30
2022-12-15T13:39:12.592Z,76.50
2022-12-15T13:44:54.686Z,76.40
2022-12-15T13:47:29.291Z,74.10
2022-12-15T13:50:10.913Z,74.10
2022-12-15T13:56:07.087Z,74.20
2022-12-15T13:58:44.602Z,73.10
2022-12-15T14:01:31.838Z,70.80
2022-12-15T14:04:16.098Z,70.70
2022-12-15T14:06:52.906Z,69.70
2022-12-15T14:09:23.117Z,68.70
2022-12-15T14:14:42.742Z,67.60
2022-12-15T14:17:15.303Z,65.80
2022-12-15T14:19:44.262Z,64.10
2022-12-15T14:22:28.168Z,65.60
2022-12-15T14:25:09.121Z,66.20
2022-12-15T14:27:35.901Z,65.60
2022-12-15T14:30:26.647Z,65.80
2022-12-15T14:33:03.052Z,65.00
2022-12-15T14:35:33.813Z,65.70
2022-12-15T14:38:02.631Z,65.00
2022-12-15T14:40:30.227Z,65.30
2022-12-15T14:42:57.146Z,65.60
2022-12-15T14:45:26.593Z,65.70
2022-12-15T14:48:39.056Z,64.90
2022-12-15T14:50:48.611Z,65.60
2022-12-15T14:53:17.913Z,64.90
2022-12-15T14:55:44.790Z,67.90
2022-12-15T14:58:34.943Z,67.30
2022-12-15T15:01:03.519Z,65.40
2022-12-15T15:03:04.401Z,82.00
2022-12-15T15:03:06.810Z,82.30
2022-12-15T15:03:09.171Z,81.70
2022-12-15T15:03:09.975Z,80.60
2022-12-15T15:03:10.853Z,79.20
2022-12-15T15:03:39.185Z,68.50
2022-12-15T15:06:16.972Z,70.00
2022-12-15T15:08:46.379Z,70.60
2022-12-15T15:11:30.002Z,72.20
2022-12-15T15:13:59.554Z,70.90
2022-12-15T15:16:26.652Z,70.50
2022-12-15T15:18:55.293Z,68.50
2022-12-15T15:21:27.873Z,66.10
2022-12-15T15:24:22.462Z,63.70
2022-12-15T15:26:49.236Z,65.80
2022-12-15T15:29:38.434Z,66.80
2022-12-15T15:32:20.149Z,65.40
2022-12-15T15:34:47.287Z,64.00
2022-12-15T15:37:24.715Z,63.30
2022-12-15T15:39:55.252Z,67.80
2022-12-15T15:42:25.491Z,65.70
2022-12-15T15:44:55.856Z,63.10
2022-12-15T15:47:26.094Z,64.20
2022-12-15T15:49:54.829Z,66.40
2022-12-15T15:52:21.947Z,69.60
2022-12-15T15:54:48.605Z,67.70
2022-12-15T15:57:16.676Z,66.60
2022-12-15T15:59:44.242Z,69.60
2022-12-15T16:02:13.451Z,67.50
2022-12-15T16:04:42.342Z,66.20
2022-12-15T16:07:21.285Z,71.00
2022-12-15T16:09:50.802Z,71.20
2022-12-15T16:12:25.607Z,71.90
2022-12-15T16:14:52.290Z,70.20
2022-12-15T16:17:19.019Z,71.00
2022-12-15T16:19:45.928Z,69.70
2022-12-15T16:22:16.384Z,73.10
2022-12-15T16:24:43.623Z,73.40
2022-12-15T16:27:12.171Z,74.50
2022-12-15T16:29:39.525Z,74.20
2022-12-15T16:32:07.037Z,73.80
2022-12-15T16:34:33.724Z,73.60
2022-12-15T16:37:00.414Z,71.80
2022-12-15T16:39:29.154Z,73.80
2022-12-15T16:41:56.612Z,74.10
2022-12-15T16:44:24.793Z,74.40
2022-12-15T16:46:51.544Z,73.90
2022-12-15T16:49:18.289Z,74.90
2022-12-15T16:51:50.947Z,77.70
2022-12-15T16:54:21.586Z,77.90
2022-12-15T16:56:48.475Z,78.50
2022-12-15T16:59:32.560Z,78.50
2022-12-15T17:02:01.062Z,79.40
2022-12-15T17:04:27.960Z,80.80
2022-12-15T17:06:55.035Z,78.90
2022-12-15T17:09:23.598Z,79.60
2022-12-15T17:11:51.023Z,79.60
2022-12-15T17:14:17.744Z,79.00
2022-12-15T17:16:44.483Z,79.90
2022-12-15T17:19:13.857Z,80.40
2022-12-15T17:21:48.494Z,80.90
2022-12-15T17:24:17.185Z,80.70
2022-12-15T17:26:44.551Z,81.10
2022-12-15T17:29:30.785Z,81.10
2022-12-15T17:31:57.516Z,81.30
2022-12-15T17:34:32.720Z,80.80
2022-12-15T17:37:02.272Z,81.30
2022-12-15T17:39:29.372Z,81.50
2022-12-15T17:42:01.387Z,82.00
2022-12-15T17:44:35.606Z,82.40
2022-12-15T17:47:05.325Z,81.50
2022-12-15T17:49:36.023Z,81.70
2022-12-15T17:52:09.074Z,82.30
2022-12-15T17:54:35.704Z,82.00
2022-12-15T17:57:02.375Z,82.30
2022-12-15T17:59:29.068Z,81.80
2022-12-15T18:01:58.537Z,81.00
2022-12-15T18:04:25.354Z,82.70
2022-12-15T18:06:56.648Z,82.40
2022-12-15T18:09:26.618Z,82.70
2022-12-15T18:11:53.637Z,81.60
2022-12-15T18:14:22.774Z,82.80
2022-12-15T18:16:49.683Z,82.30
2022-12-15T18:19:16.387Z,83.00
2022-12-15T18:21:43.096Z,81.90
2022-12-15T18:24:13.979Z,81.90
2022-12-15T18:26:40.732Z,81.90
2022-12-15T18:29:17.500Z,82.20
2022-12-15T18:31:48.399Z,82.20
2022-12-15T18:34:21.017Z,82.20
2022-12-15T18:36:47.892Z,81.60
2022-12-15T18:39:19.560Z,81.80
2022-12-15T18:41:46.638Z,81.30
2022-12-15T18:44:25.234Z,80.40
2022-12-15T18:46:52.296Z,81.50
2022-12-15T18:49:19.428Z,82.70
2022-12-15T18:51:46.904Z,82.50
2022-12-15T18:54:20.334Z,82.60
2022-12-15T18:56:47.281Z,82.30
2022-12-15T18:59:15.966Z,81.70
2022-12-15T19:01:43.906Z,82.20
2022-12-15T19:04:10.824Z,81.40
2022-12-15T19:06:38.280Z,80.90
2022-12-15T19:09:17.751Z,81.90
2022-12-15T19:12:05.605Z,81.30
2022-12-15T19:14:41.135Z,82.10
2022-12-15T19:17:31.365Z,80.50
2022-12-15T19:20:16.509Z,81.10
2022-12-15T19:22:44.127Z,82.10
2022-12-15T19:25:15.002Z,82.80
2022-12-15T19:27:41.774Z,80.20
2022-12-15T19:30:19.462Z,80.80
2022-12-15T19:32:46.103Z,80.30
2022-12-15T19:35:12.773Z,79.30
2022-12-15T19:37:41.613Z,80.60
2022-12-15T19:40:11.232Z,79.40
2022-12-15T19:42:37.917Z,79.00
2022-12-15T19:45:22.655Z,78.40
2022-12-15T19:47:49.348Z,79.10
2022-12-15T19:50:22.378Z,77.70
2022-12-15T19:52:53.059Z,79.40
2022-12-15T19:55:26.651Z,79.00
2022-12-15T19:57:53.452Z,79.20
2022-12-15T20:00:21.931Z,78.40
2022-12-15T20:02:54.495Z,76.80
2022-12-15T20:05:22.985Z,78.30
2022-12-15T20:07:51.455Z,77.50
2022-12-15T20:10:25.928Z,77.90
2022-12-15T20:12:57.002Z,78.00
2022-12-15T20:15:25.822Z,77.50
2022-12-15T20:17:56.482Z,78.90
2022-12-15T20:20:24.726Z,78.40
2022-12-15T20:22:54.745Z,77.60
2022-12-15T20:25:25.430Z,77.20
2022-12-15T20:27:52.169Z,76.80
2022-12-15T20:30:25.086Z,75.80
2022-12-15T20:32:51.873Z,76.70
2022-12-15T20:35:20.345Z,76.40
2022-12-15T20:37:47.534Z,77.20
2022-12-15T20:40:22.906Z,76.10
2022-12-15T20:42:51.303Z,75.60
2022-12-15T20:45:21.608Z,75.80
2022-12-15T20:47:50.060Z,76.20
2022-12-15T20:50:41.197Z,75.20
2022-12-15T20:53:34.691Z,76.30
2022-12-15T20:56:01.528Z,74.80
2022-12-15T20:58:32.879Z,75.90
2022-12-15T21:01:00.388Z,77.00
2022-12-15T21:03:29.886Z,75.10
2022-12-15T21:05:57.979Z,75.20
2022-12-15T21:08:32.187Z,74.70
2022-12-15T21:11:14.708Z,74.20
2022-12-15T21:13:41.774Z,74.20
2022-12-15T21:16:15.582Z,74.80
2022-12-15T21:19:19.198Z,75.00
2022-12-15T21:21:37.528Z,75.00
2022-12-15T21:24:22.843Z,74.80
2022-12-15T21:26:50.842Z,75.50
2022-12-15T21:29:23.932Z,75.90
2022-12-15T21:31:51.404Z,75.60
2022-12-15T21:34:18.044Z,75.60
2022-12-15T21:36:47.778Z,74.90
2022-12-15T21:39:29.261Z,74.60
2022-12-15T21:42:02.643Z,75.00
2022-12-15T21:44:29.435Z,74.10
2022-12-15T21:46:56.097Z,74.50
2022-12-15T21:49:23.361Z,74.10
2022-12-15T21:51:58.344Z,74.10
2022-12-15T21:54:30.989Z,74.90
2022-12-15T21:56:59.228Z,74.80
2022-12-15T21:59:29.084Z,73.50
2022-12-15T22:01:56.179Z,73.30
2022-12-15T22:04:30.505Z,75.10
2022-12-15T22:06:57.170Z,74.90
2022-12-15T22:09:23.866Z,73.70
2022-12-15T22:11:53.762Z,73.90
2022-12-15T22:14:30.558Z,74.70
2022-12-15T22:17:07.865Z,73.60
2022-12-15T22:19:34.577Z,74.30
2022-12-15T22:22:01.640Z,74.50
2022-12-15T22:24:34.087Z,76.80
2022-12-15T22:27:00.973Z,79.80
2022-12-15T22:29:31.786Z,77.60
2022-12-15T22:31:58.584Z,74.00
2022-12-15T22:34:27.129Z,76.70
2022-12-15T22:36:54.978Z,76.60
2022-12-15T22:39:22.016Z,77.70
2022-12-15T22:41:56.448Z,77.30
2022-12-15T22:44:29.650Z,73.90
2022-12-15T22:46:59.252Z,74.70
2022-12-15T22:49:41.072Z,71.70
2022-12-15T23:08:08.275Z,71.70
2022-12-15T23:10:53.808Z,78.50
2022-12-15T23:13:21.481Z,71.60
2022-12-15T23:16:07.306Z,74.30
2022-12-15T23:18:34.055Z,73.50
2022-12-15T23:21:01.595Z,74.10
2022-12-15T23:23:31.295Z,73.10
2022-12-15T23:25:58.517Z,71.70
2022-12-15T23:28:25.562Z,72.30
2022-12-15T23:30:52.851Z,71.20
2022-12-15T23:33:19.774Z,72.40
2022-12-15T23:35:47.079Z,71.00
2022-12-15T23:38:14.168Z,71.10
2022-12-15T23:40:49.576Z,71.80
2022-12-15T23:43:19.987Z,71.60
2022-12-15T23:45:54.629Z,70.70
2022-12-15T23:48:21.242Z,72.20
2022-12-15T23:50:47.894Z,71.80
2022-12-15T23:53:14.550Z,71.10
2022-12-15T23:55:41.169Z,71.30
2022-12-15T23:58:07.863Z,70.70
